sensor_id;sensor_type;location;lat;lon;timestamp;pressure;altitude;pressure_sealevel;temperature;humidity
60061;BME280;45933;51.336;12.612;2023-04-09T00:02:09;100889.78;;;5.58;57.12
60061;BME280;45933;51.336;12.612;2023-04-09T00:04:35;100899.22;;;5.56;57.38
60061;BME280;45933;51.336;12.612;2023-04-09T00:07:01;100894.81;;;5.53;57.40
60061;BME280;45933;51.336;12.612;2023-04-09T00:09:26;100896.47;;;5.49;57.29
60061;BME280;45933;51.336;12.612;2023-04-09T00:11:51;100892.06;;;5.47;57.43
60061;BME280;45933;51.336;12.612;2023-04-09T00:14:17;100899.75;;;5.44;57.38
60061;BME280;45933;51.336;12.612;2023-04-09T00:16:42;100893.63;;;5.40;57.09
60061;BME280;45933;51.336;12.612;2023-04-09T00:19:07;100896.19;;;5.40;57.41
60061;BME280;45933;51.336;12.612;2023-04-09T00:21:32;100901.34;;;5.39;57.43
60061;BME280;45933;51.336;12.612;2023-04-09T00:23:58;100897.78;;;5.35;57.56
60061;BME280;45933;51.336;12.612;2023-04-09T00:26:23;100896.00;;;5.33;57.95
60061;BME280;45933;51.336;12.612;2023-04-09T00:28:48;100900.25;;;5.32;57.48
60061;BME280;45933;51.336;12.612;2023-04-09T00:31:14;100896.72;;;5.29;57.19
60061;BME280;45933;51.336;12.612;2023-04-09T00:33:39;100898.38;;;5.27;57.26
60061;BME280;45933;51.336;12.612;2023-04-09T00:36:05;100898.31;;;5.23;57.54
60061;BME280;45933;51.336;12.612;2023-04-09T00:38:30;100899.94;;;5.21;57.58
60061;BME280;45933;51.336;12.612;2023-04-09T00:40:56;100896.47;;;5.19;57.39
60061;BME280;45933;51.336;12.612;2023-04-09T00:43:21;100903.31;;;5.17;57.55
60061;BME280;45933;51.336;12.612;2023-04-09T00:45:46;100900.63;;;5.14;57.34
60061;BME280;45933;51.336;12.612;2023-04-09T00:48:13;100898.84;;;5.12;57.58
60061;BME280;45933;51.336;12.612;2023-04-09T00:50:40;100905.69;;;5.11;57.40
60061;BME280;45933;51.336;12.612;2023-04-09T00:53:06;100898.72;;;5.09;57.62
60061;BME280;45933;51.336;12.612;2023-04-09T00:55:31;100903.88;;;5.07;57.20
60061;BME280;45933;51.336;12.612;2023-04-09T00:57:57;100910.66;;;5.05;57.41
60061;BME280;45933;51.336;12.612;2023-04-09T01:00:22;100902.84;;;5.02;57.21
60061;BME280;45933;51.336;12.612;2023-04-09T01:02:48;100907.06;;;5.00;57.33
60061;BME280;45933;51.336;12.612;2023-04-09T01:05:16;100907.00;;;4.97;57.56
60061;BME280;45933;51.336;12.612;2023-04-09T01:08:00;100909.75;;;5.03;56.68
60061;BME280;45933;51.336;12.612;2023-04-09T01:10:41;100907.88;;;4.97;57.20
60061;BME280;45933;51.336;12.612;2023-04-09T01:15:51;100912.16;;;4.97;57.15
60061;BME280;45933;51.336;12.612;2023-04-09T01:18:22;100916.31;;;4.92;57.44
60061;BME280;45933;51.336;12.612;2023-04-09T01:20:58;100913.63;;;4.89;57.23
60061;BME280;45933;51.336;12.612;2023-04-09T01:23:44;100917.88;;;4.87;57.38
60061;BME280;45933;51.336;12.612;2023-04-09T01:28:52;100922.78;;;4.79;57.47
60061;BME280;45933;51.336;12.612;2023-04-09T01:31:22;100922.72;;;4.76;57.66
60061;BME280;45933;51.336;12.612;2023-04-09T01:33:51;100920.97;;;4.75;58.48
60061;BME280;45933;51.336;12.612;2023-04-09T01:36:17;100915.72;;;4.73;57.93
60061;BME280;45933;51.336;12.612;2023-04-09T01:38:43;100917.38;;;4.70;58.12
60061;BME280;45933;51.336;12.612;2023-04-09T01:41:14;100919.16;;;4.72;58.31
60061;BME280;45933;51.336;12.612;2023-04-09T01:43:41;100914.63;;;4.65;58.18
60061;BME280;45933;51.336;12.612;2023-04-09T01:46:08;100921.44;;;4.63;58.22
60061;BME280;45933;51.336;12.612;2023-04-09T01:48:35;100915.41;;;4.63;58.56
60061;BME280;45933;51.336;12.612;2023-04-09T01:51:01;100920.47;;;4.60;58.58
60061;BME280;45933;51.336;12.612;2023-04-09T01:53:26;100915.31;;;4.60;58.96
60061;BME280;45933;51.336;12.612;2023-04-09T01:55:59;100916.91;;;4.56;58.86
60061;BME280;45933;51.336;12.612;2023-04-09T01:58:25;100914.28;;;4.55;59.04
60061;BME280;45933;51.336;12.612;2023-04-09T02:00:56;100914.34;;;4.56;58.96
60061;BME280;45933;51.336;12.612;2023-04-09T02:03:26;100910.78;;;4.53;58.89
60061;BME280;45933;51.336;12.612;2023-04-09T02:06:05;100916.00;;;4.54;58.65
60061;BME280;45933;51.336;12.612;2023-04-09T02:08:33;100917.56;;;4.49;58.87
60061;BME280;45933;51.336;12.612;2023-04-09T02:11:03;100915.06;;;4.52;58.91
60061;BME280;45933;51.336;12.612;2023-04-09T02:13:30;100913.16;;;4.46;59.29
60061;BME280;45933;51.336;12.612;2023-04-09T02:15:58;100913.16;;;4.46;59.03
60061;BME280;45933;51.336;12.612;2023-04-09T02:18:25;100913.06;;;4.43;59.31
60061;BME280;45933;51.336;12.612;2023-04-09T02:20:52;100911.28;;;4.42;59.72
60061;BME280;45933;51.336;12.612;2023-04-09T02:23:17;100911.25;;;4.41;59.49
60061;BME280;45933;51.336;12.612;2023-04-09T02:25:43;100912.97;;;4.40;59.70
60061;BME280;45933;51.336;12.612;2023-04-09T02:28:08;100912.06;;;4.38;59.34
60061;BME280;45933;51.336;12.612;2023-04-09T02:30:33;100918.00;;;4.37;59.77
60061;BME280;45933;51.336;12.612;2023-04-09T02:32:59;100917.22;;;4.38;60.05
60061;BME280;45933;51.336;12.612;2023-04-09T02:35:24;100921.50;;;4.38;59.91
60061;BME280;45933;51.336;12.612;2023-04-09T02:37:49;100914.56;;;4.37;59.99
60061;BME280;45933;51.336;12.612;2023-04-09T02:40:15;100917.09;;;4.35;59.79
60061;BME280;45933;51.336;12.612;2023-04-09T02:42:40;100922.25;;;4.35;60.07
60061;BME280;45933;51.336;12.612;2023-04-09T02:45:06;100911.94;;;4.35;60.19
60061;BME280;45933;51.336;12.612;2023-04-09T02:47:31;100920.50;;;4.34;60.41
60061;BME280;45933;51.336;12.612;2023-04-09T02:49:57;100918.81;;;4.35;60.32
60061;BME280;45933;51.336;12.612;2023-04-09T02:52:22;100915.34;;;4.34;60.39
60061;BME280;45933;51.336;12.612;2023-04-09T02:54:49;100926.50;;;4.33;60.69
60061;BME280;45933;51.336;12.612;2023-04-09T02:57:14;100926.50;;;4.33;60.64
60061;BME280;45933;51.336;12.612;2023-04-09T02:59:40;100923.09;;;4.34;60.43
60061;BME280;45933;51.336;12.612;2023-04-09T03:02:05;100917.94;;;4.34;60.25
60061;BME280;45933;51.336;12.612;2023-04-09T03:04:30;100925.69;;;4.34;60.18
60061;BME280;45933;51.336;12.612;2023-04-09T03:06:56;100926.50;;;4.33;59.91
60061;BME280;45933;51.336;12.612;2023-04-09T03:09:21;100924.72;;;4.32;60.01
60061;BME280;45933;51.336;12.612;2023-04-09T03:11:46;100912.63;;;4.30;59.60
60061;BME280;45933;51.336;12.612;2023-04-09T03:14:13;100918.56;;;4.27;59.78
60061;BME280;45933;51.336;12.612;2023-04-09T03:16:38;100918.56;;;4.27;59.87
60061;BME280;45933;51.336;12.612;2023-04-09T03:19:03;100924.53;;;4.26;59.59
60061;BME280;45933;51.336;12.612;2023-04-09T03:21:29;100922.78;;;4.25;59.86
60061;BME280;45933;51.336;12.612;2023-04-09T03:23:54;100918.34;;;4.21;59.64
60061;BME280;45933;51.336;12.612;2023-04-09T03:26:19;100920.00;;;4.19;59.56
60061;BME280;45933;51.336;12.612;2023-04-09T03:28:45;100922.47;;;4.16;59.29
60061;BME280;45933;51.336;12.612;2023-04-09T03:31:10;100924.13;;;4.14;59.44
60061;BME280;45933;51.336;12.612;2023-04-09T03:33:35;100916.34;;;4.12;59.78
60061;BME280;45933;51.336;12.612;2023-04-09T03:36:01;100917.97;;;4.10;59.61
60061;BME280;45933;51.336;12.612;2023-04-09T03:38:26;100923.88;;;4.06;59.73
60061;BME280;45933;51.336;12.612;2023-04-09T03:40:51;100912.63;;;4.04;59.90
60061;BME280;45933;51.336;12.612;2023-04-09T03:43:16;100912.53;;;4.01;nan
60061;BME280;45933;51.336;12.612;2023-04-09T03:45:42;100913.34;;;4.00;59.91
60061;BME280;45933;51.336;12.612;2023-04-09T03:48:07;100907.25;;;3.98;60.35
60061;BME280;45933;51.336;12.612;2023-04-09T03:50:39;100912.47;;;4.00;59.95
60061;BME280;45933;51.336;12.612;2023-04-09T03:53:05;100913.97;;;3.93;60.29
60061;BME280;45933;51.336;12.612;2023-04-09T03:55:30;100917.38;;;3.92;60.68
60061;BME280;45933;51.336;12.612;2023-04-09T03:57:55;100924.16;;;3.90;60.59
60061;BME280;45933;51.336;12.612;2023-04-09T04:00:21;100924.13;;;3.88;60.60
60061;BME280;45933;51.336;12.612;2023-04-09T04:02:46;100918.03;;;3.86;60.48
60061;BME280;45933;51.336;12.612;2023-04-09T04:05:12;100924.03;;;3.85;60.73
60061;BME280;45933;51.336;12.612;2023-04-09T04:07:37;100925.69;;;3.85;60.99
60061;BME280;45933;51.336;12.612;2023-04-09T04:10:05;100927.41;;;3.84;60.98
60061;BME280;45933;51.336;12.612;2023-04-09T04:12:30;100917.91;;;3.83;60.90
60061;BME280;45933;51.336;12.612;2023-04-09T04:14:56;100921.31;;;3.82;61.18
60061;BME280;45933;51.336;12.612;2023-04-09T04:17:22;100928.22;;;3.83;61.14
60061;BME280;45933;51.336;12.612;2023-04-09T04:19:47;100919.66;;;3.84;61.29
60061;BME280;45933;51.336;12.612;2023-04-09T04:22:12;100916.16;;;3.82;60.84
60061;BME280;45933;51.336;12.612;2023-04-09T04:24:44;100918.88;;;3.85;61.00
60061;BME280;45933;51.336;12.612;2023-04-09T04:27:12;100929.09;;;3.84;60.59
60061;BME280;45933;51.336;12.612;2023-04-09T04:29:37;100923.06;;;3.83;60.80
60061;BME280;45933;51.336;12.612;2023-04-09T04:32:03;100923.91;;;3.82;60.68
60061;BME280;45933;51.336;12.612;2023-04-09T04:34:28;100927.34;;;3.83;60.69
60061;BME280;45933;51.336;12.612;2023-04-09T04:36:53;100924.72;;;3.81;60.98
60061;BME280;45933;51.336;12.612;2023-04-09T04:39:18;100932.44;;;3.80;60.84
60061;BME280;45933;51.336;12.612;2023-04-09T04:41:44;100931.53;;;3.79;60.62
60061;BME280;45933;51.336;12.612;2023-04-09T04:44:09;100928.06;;;3.79;60.92
60061;BME280;45933;51.336;12.612;2023-04-09T04:46:35;100928.94;;;3.79;61.00
60061;BME280;45933;51.336;12.612;2023-04-09T04:49:00;100931.47;;;3.78;60.98
60061;BME280;45933;51.336;12.612;2023-04-09T04:51:25;100936.63;;;3.78;60.95
60061;BME280;45933;51.336;12.612;2023-04-09T04:53:51;100931.47;;;3.78;61.20
60061;BME280;45933;51.336;12.612;2023-04-09T04:56:17;100933.19;;;3.77;61.41
60061;BME280;45933;51.336;12.612;2023-04-09T04:58:42;100933.19;;;3.77;61.45
60061;BME280;45933;51.336;12.612;2023-04-09T05:01:07;100934.06;;;3.78;61.08
60061;BME280;45933;51.336;12.612;2023-04-09T05:03:33;100934.06;;;3.78;61.03
60061;BME280;45933;51.336;12.612;2023-04-09T05:05:58;100932.34;;;3.78;61.08
60061;BME280;45933;51.336;12.612;2023-04-09T05:08:23;100938.38;;;3.79;61.28
60061;BME280;45933;51.336;12.612;2023-04-09T05:10:49;100937.69;;;3.83;61.54
60061;BME280;45933;51.336;12.612;2023-04-09T05:13:15;100943.72;;;3.83;61.45
60061;BME280;45933;51.336;12.612;2023-04-09T05:15:40;100940.28;;;3.84;61.22
60061;BME280;45933;51.336;12.612;2023-04-09T05:18:07;100936.97;;;3.87;61.61
60061;BME280;45933;51.336;12.612;2023-04-09T05:20:33;100937.97;;;3.90;61.69
60061;BME280;45933;51.336;12.612;2023-04-09T05:22:58;100937.13;;;3.91;61.91
60061;BME280;45933;51.336;12.612;2023-04-09T05:25:24;100944.16;;;3.96;62.14
60061;BME280;45933;51.336;12.612;2023-04-09T05:27:49;100948.53;;;3.98;62.26
60061;BME280;45933;51.336;12.612;2023-04-09T05:30:14;100953.84;;;4.03;62.39
60061;BME280;45933;51.336;12.612;2023-04-09T05:32:40;100953.06;;;4.05;62.31
60061;BME280;45933;51.336;12.612;2023-04-09T05:35:06;100953.19;;;4.08;62.27
60061;BME280;45933;51.336;12.612;2023-04-09T05:37:31;100961.03;;;4.11;62.35
60061;BME280;45933;51.336;12.612;2023-04-09T05:39:56;100959.47;;;4.16;62.64
60061;BME280;45933;51.336;12.612;2023-04-09T05:42:21;100955.31;;;4.20;62.64
60061;BME280;45933;51.336;12.612;2023-04-09T05:44:47;100956.34;;;4.25;62.98
60061;BME280;45933;51.336;12.612;2023-04-09T05:47:12;100954.78;;;4.30;63.37
60061;BME280;45933;51.336;12.612;2023-04-09T05:49:37;100959.28;;;4.36;63.17
60061;BME280;45933;51.336;12.612;2023-04-09T05:52:03;100965.50;;;4.42;63.21
60061;BME280;45933;51.336;12.612;2023-04-09T05:54:28;100962.25;;;4.48;63.70
60061;BME280;45933;51.336;12.612;2023-04-09T05:56:53;100958.94;;;4.52;64.06
60061;BME280;45933;51.336;12.612;2023-04-09T05:59:19;100956.63;;;4.60;63.69
60061;BME280;45933;51.336;12.612;2023-04-09T06:01:44;100956.78;;;4.64;63.62
60061;BME280;45933;51.336;12.612;2023-04-09T06:04:09;100951.84;;;4.72;63.80
60061;BME280;45933;51.336;12.612;2023-04-09T06:06:37;100949.47;;;4.78;63.87
60061;BME280;45933;51.336;12.612;2023-04-09T06:09:02;100959.19;;;4.85;63.68
60061;BME280;45933;51.336;12.612;2023-04-09T06:11:28;100957.66;;;4.92;63.53
60061;BME280;45933;51.336;12.612;2023-04-09T06:13:54;100950.97;;;4.98;63.61
60061;BME280;45933;51.336;12.612;2023-04-09T06:16:19;100951.16;;;5.05;63.45
60061;BME280;45933;51.336;12.612;2023-04-09T06:18:45;100954.78;;;5.11;63.76
60061;BME280;45933;51.336;12.612;2023-04-09T06:21:11;100951.56;;;5.18;63.45
60061;BME280;45933;51.336;12.612;2023-04-09T06:23:37;100959.53;;;5.26;63.51
60061;BME280;45933;51.336;12.612;2023-04-09T06:26:02;100956.34;;;5.33;63.63
60061;BME280;45933;51.336;12.612;2023-04-09T06:28:28;100962.56;;;5.40;63.53
60061;BME280;45933;51.336;12.612;2023-04-09T06:30:53;100963.53;;;5.43;63.58
60061;BME280;45933;51.336;12.612;2023-04-09T06:33:19;100964.63;;;5.53;63.62
60061;BME280;45933;51.336;12.612;2023-04-09T06:35:45;100965.75;;;5.61;63.17
60061;BME280;45933;51.336;12.612;2023-04-09T06:38:11;100970.22;;;5.67;63.02
60061;BME280;45933;51.336;12.612;2023-04-09T06:40:36;100974.72;;;5.74;63.54
60061;BME280;45933;51.336;12.612;2023-04-09T06:43:02;100968.09;;;5.84;63.55
60061;BME280;45933;51.336;12.612;2023-04-09T06:45:28;100983.06;;;5.92;63.30
60061;BME280;45933;51.336;12.612;2023-04-09T06:47:54;100984.03;;;5.96;63.93
60061;BME280;45933;51.336;12.612;2023-04-09T06:50:19;100985.09;;;6.04;64.13
60061;BME280;45933;51.336;12.612;2023-04-09T06:52:45;100988.66;;;6.08;63.73
60061;BME280;45933;51.336;12.612;2023-04-09T06:55:10;100993.13;;;6.15;63.91
60061;BME280;45933;51.336;12.612;2023-04-09T06:57:36;100995.03;;;6.22;63.86
60061;BME280;45933;51.336;12.612;2023-04-09T07:00:03;100995.16;;;6.26;63.28
60061;BME280;45933;51.336;12.612;2023-04-09T07:02:28;100993.69;;;6.35;63.51
60061;BME280;45933;51.336;12.612;2023-04-09T07:04:53;100998.09;;;6.39;63.22
60061;BME280;45933;51.336;12.612;2023-04-09T07:07:18;100996.56;;;6.47;63.04
60061;BME280;45933;51.336;12.612;2023-04-09T07:09:45;101003.56;;;6.49;62.95
60061;BME280;45933;51.336;12.612;2023-04-09T07:12:10;101001.16;;;6.57;63.30
60061;BME280;45933;51.336;12.612;2023-04-09T07:14:35;101006.53;;;6.65;63.06
60061;BME280;45933;51.336;12.612;2023-04-09T07:17:01;101002.25;;;6.67;63.28
60061;BME280;45933;51.336;12.612;2023-04-09T07:19:26;101001.63;;;6.75;62.59
60061;BME280;45933;51.336;12.612;2023-04-09T07:21:51;101001.78;;;6.81;62.58
60061;BME280;45933;51.336;12.612;2023-04-09T07:24:17;100995.81;;;6.86;62.44
60061;BME280;45933;51.336;12.612;2023-04-09T07:26:42;100996.84;;;6.92;62.07
60061;BME280;45933;51.336;12.612;2023-04-09T07:29:07;101002.06;;;6.94;62.45
60061;BME280;45933;51.336;12.612;2023-04-09T07:31:33;100998.84;;;7.04;61.56
60061;BME280;45933;51.336;12.612;2023-04-09T07:33:58;100996.41;;;7.12;61.50
60061;BME280;45933;51.336;12.612;2023-04-09T07:36:23;100994.78;;;7.17;61.41
60061;BME280;45933;51.336;12.612;2023-04-09T07:38:49;101000.28;;;7.29;61.74
60061;BME280;45933;51.336;12.612;2023-04-09T07:41:14;101006.47;;;7.36;62.18
60061;BME280;45933;51.336;12.612;2023-04-09T07:43:39;101002.28;;;7.42;61.43
60061;BME280;45933;51.336;12.612;2023-04-09T07:46:05;101001.75;;;7.57;61.40
60061;BME280;45933;51.336;12.612;2023-04-09T07:48:31;100995.81;;;7.64;60.88
60061;BME280;45933;51.336;12.612;2023-04-09T07:50:56;100998.66;;;7.75;60.41
60061;BME280;45933;51.336;12.612;2023-04-09T07:53:21;101006.59;;;7.81;59.92
60061;BME280;45933;51.336;12.612;2023-04-09T07:55:49;100997.28;;;7.92;60.17
60061;BME280;45933;51.336;12.612;2023-04-09T07:58:15;100999.25;;;8.05;61.62
60061;BME280;45933;51.336;12.612;2023-04-09T08:00:40;101001.16;;;8.12;59.44
60061;BME280;45933;51.336;12.612;2023-04-09T08:03:06;100993.56;;;8.23;59.12
60061;BME280;45933;51.336;12.612;2023-04-09T08:05:31;100995.50;;;8.35;59.04
60061;BME280;45933;51.336;12.612;2023-04-09T08:07:56;101002.72;;;8.50;58.84
60061;BME280;45933;51.336;12.612;2023-04-09T08:10:22;100999.28;;;8.51;57.99
60061;BME280;45933;51.336;12.612;2023-04-09T08:12:47;100996.84;;;8.61;57.72
60061;BME280;45933;51.336;12.612;2023-04-09T08:15:13;100995.38;;;8.77;58.37
60061;BME280;45933;51.336;12.612;2023-04-09T08:17:38;100998.09;;;8.85;57.78
60061;BME280;45933;51.336;12.612;2023-04-09T08:20:04;100986.19;;;8.98;57.70
60061;BME280;45933;51.336;12.612;2023-04-09T08:22:30;100996.75;;;9.08;57.15
60061;BME280;45933;51.336;12.612;2023-04-09T08:24:55;100995.16;;;9.20;57.21
60061;BME280;45933;51.336;12.612;2023-04-09T08:27:22;100989.25;;;9.31;56.22
60061;BME280;45933;51.336;12.612;2023-04-09T08:29:47;100984.31;;;9.50;56.63
60061;BME280;45933;51.336;12.612;2023-04-09T08:32:12;100984.69;;;9.80;56.34
60061;BME280;45933;51.336;12.612;2023-04-09T08:34:38;100991.16;;;10.17;55.09
60061;BME280;45933;51.336;12.612;2023-04-09T08:37:03;100982.97;;;10.64;54.96
60061;BME280;45933;51.336;12.612;2023-04-09T08:39:28;100974.66;;;11.17;55.04
60061;BME280;45933;51.336;12.612;2023-04-09T08:41:57;100970.59;;;11.73;53.97
60061;BME280;45933;51.336;12.612;2023-04-09T08:44:28;100967.28;;;12.34;53.52
60061;BME280;45933;51.336;12.612;2023-04-09T08:46:54;100972.56;;;12.87;52.92
60061;BME280;45933;51.336;12.612;2023-04-09T08:49:20;100967.25;;;13.33;51.24
60061;BME280;45933;51.336;12.612;2023-04-09T08:51:47;100961.84;;;13.79;48.70
60061;BME280;45933;51.336;12.612;2023-04-09T08:54:16;100967.63;;;14.33;47.59
60061;BME280;45933;51.336;12.612;2023-04-09T08:56:46;100953.34;;;14.77;47.09
60061;BME280;45933;51.336;12.612;2023-04-09T08:59:15;100944.19;;;15.19;45.04
60061;BME280;45933;51.336;12.612;2023-04-09T09:01:43;100958.69;;;15.49;42.96
60061;BME280;45933;51.336;12.612;2023-04-09T09:04:12;100946.97;;;15.82;43.19
60061;BME280;45933;51.336;12.612;2023-04-09T09:06:38;100938.59;;;16.13;42.44
60061;BME280;45933;51.336;12.612;2023-04-09T09:09:14;100933.72;;;16.47;43.10
60061;BME280;45933;51.336;12.612;2023-04-09T09:11:41;100940.97;;;16.85;43.01
60061;BME280;45933;51.336;12.612;2023-04-09T09:14:11;100944.94;;;17.08;41.03
60061;BME280;45933;51.336;12.612;2023-04-09T09:16:39;100945.31;;;17.34;40.35
60061;BME280;45933;51.336;12.612;2023-04-09T09:21:57;100945.50;;;18.10;42.25
60061;BME280;45933;51.336;12.612;2023-04-09T09:24:23;100937.13;;;18.30;39.67
60061;BME280;45933;51.336;12.612;2023-04-09T09:26:48;100933.84;;;18.56;40.13
60061;BME280;45933;51.336;12.612;2023-04-09T09:29:14;100937.59;;;18.83;39.96
60061;BME280;45933;51.336;12.612;2023-04-09T09:31:50;100928.03;;;19.12;39.63
60061;BME280;45933;51.336;12.612;2023-04-09T09:34:16;100929.13;;;19.36;37.75
60061;BME280;45933;51.336;12.612;2023-04-09T09:36:43;100923.28;;;19.54;37.41
60061;BME280;45933;51.336;12.612;2023-04-09T09:39:09;100923.75;;;19.70;36.81
60061;BME280;45933;51.336;12.612;2023-04-09T09:41:36;100911.88;;;19.83;36.37
60061;BME280;45933;51.336;12.612;2023-04-09T09:44:01;100915.59;;;20.05;36.12
60061;BME280;45933;51.336;12.612;2023-04-09T09:46:30;100920.09;;;20.30;35.75
60061;BME280;45933;51.336;12.612;2023-04-09T09:48:58;100910.06;;;20.40;34.03
60061;BME280;45933;51.336;12.612;2023-04-09T09:51:25;100915.59;;;20.60;34.37
60061;BME280;45933;51.336;12.612;2023-04-09T09:53:54;100915.19;;;20.72;34.17
60061;BME280;45933;51.336;12.612;2023-04-09T09:56:21;100905.81;;;20.87;34.23
60061;BME280;45933;51.336;12.612;2023-04-09T09:59:12;100907.00;;;21.03;34.62
60061;BME280;45933;51.336;12.612;2023-04-09T10:01:39;100910.28;;;21.11;33.32
60061;BME280;45933;51.336;12.612;2023-04-09T10:04:05;100906.22;;;21.25;33.15
60061;BME280;45933;51.336;12.612;2023-04-09T10:06:42;100904.97;;;21.36;32.18
60061;BME280;45933;51.336;12.612;2023-04-09T10:09:08;100900.34;;;21.65;32.94
60061;BME280;45933;51.336;12.612;2023-04-09T10:11:35;100911.16;;;21.82;32.44
60061;BME280;45933;51.336;12.612;2023-04-09T10:14:02;100906.38;;;21.92;31.79
60061;BME280;45933;51.336;12.612;2023-04-09T10:16:27;100896.34;;;21.99;32.12
60061;BME280;45933;51.336;12.612;2023-04-09T10:18:54;100892.81;;;22.22;31.70
60061;BME280;45933;51.336;12.612;2023-04-09T10:21:41;100894.03;;;22.35;31.84
60061;BME280;45933;51.336;12.612;2023-04-09T10:24:08;100894.44;;;22.46;31.15
60061;BME280;45933;51.336;12.612;2023-04-09T10:26:34;100892.41;;;22.53;29.88
60061;BME280;45933;51.336;12.612;2023-04-09T10:29:08;100892.94;;;22.81;31.64
60061;BME280;45933;51.336;12.612;2023-04-09T10:34:21;100882.66;;;22.74;30.24
60061;BME280;45933;51.336;12.612;2023-04-09T10:36:52;100887.94;;;22.95;30.28
60061;BME280;45933;51.336;12.612;2023-04-09T10:39:19;100885.94;;;23.01;30.12
60061;BME280;45933;51.336;12.612;2023-04-09T10:41:45;100876.81;;;23.06;30.37
60061;BME280;45933;51.336;12.612;2023-04-09T10:44:26;100885.09;;;23.19;30.54
60061;BME280;45933;51.336;12.612;2023-04-09T10:46:52;100887.34;;;23.28;29.91
60061;BME280;45933;51.336;12.612;2023-04-09T10:49:19;100888.38;;;23.44;30.29
60061;BME280;45933;51.336;12.612;2023-04-09T10:52:00;100884.56;;;23.50;29.44
60061;BME280;45933;51.336;12.612;2023-04-09T10:54:41;100880.63;;;23.59;30.16
60061;BME280;45933;51.336;12.612;2023-04-09T10:57:20;100874.94;;;23.66;28.78
60061;BME280;45933;51.336;12.612;2023-04-09T10:59:50;100876.09;;;23.80;28.46
60061;BME280;45933;51.336;12.612;2023-04-09T11:05:17;100861.31;;;24.10;28.25
60061;BME280;45933;51.336;12.612;2023-04-09T11:08:07;100868.69;;;24.22;28.28
60061;BME280;45933;51.336;12.612;2023-04-09T11:10:34;100859.97;;;24.19;28.37
60061;BME280;45933;51.336;12.612;2023-04-09T11:13:00;100862.19;;;24.28;28.42
60061;BME280;45933;51.336;12.612;2023-04-09T11:15:26;100849.00;;;24.25;27.50
60061;BME280;45933;51.336;12.612;2023-04-09T11:17:51;100849.00;;;24.25;28.66
60061;BME280;45933;51.336;12.612;2023-04-09T11:20:19;100853.16;;;24.31;27.88
60061;BME280;45933;51.336;12.612;2023-04-09T11:22:46;100859.53;;;24.28;27.89
60061;BME280;45933;51.336;12.612;2023-04-09T11:25:25;100859.16;;;24.36;27.84
60061;BME280;45933;51.336;12.612;2023-04-09T11:27:51;100852.06;;;24.35;26.50
60061;BME280;45933;51.336;12.612;2023-04-09T11:30:17;100849.06;;;24.42;27.35
60061;BME280;45933;51.336;12.612;2023-04-09T11:32:43;100858.38;;;24.51;27.42
60061;BME280;45933;51.336;12.612;2023-04-09T11:35:13;100859.41;;;24.48;26.21
60061;BME280;45933;51.336;12.612;2023-04-09T11:37:40;100855.78;;;24.49;27.50
60061;BME280;45933;51.336;12.612;2023-04-09T11:40:28;100858.59;;;24.46;27.67
60061;BME280;45933;51.336;12.612;2023-04-09T11:42:53;100849.25;;;24.72;27.72
60061;BME280;45933;51.336;12.612;2023-04-09T11:45:23;100851.38;;;24.83;27.56
60061;BME280;45933;51.336;12.612;2023-04-09T11:47:49;100843.69;;;24.77;25.95
60061;BME280;45933;51.336;12.612;2023-04-09T11:50:15;100851.94;;;24.72;26.00
60061;BME280;45933;51.336;12.612;2023-04-09T11:52:42;100846.31;;;24.78;25.95
60061;BME280;45933;51.336;12.612;2023-04-09T11:55:09;100851.94;;;24.72;26.29
60061;BME280;45933;51.336;12.612;2023-04-09T11:57:45;100854.03;;;24.83;26.58
60061;BME280;45933;51.336;12.612;2023-04-09T12:00:15;100850.69;;;24.80;26.72
60061;BME280;45933;51.336;12.612;2023-04-09T12:02:46;100849.03;;;24.77;26.21
60061;BME280;45933;51.336;12.612;2023-04-09T12:05:20;100848.56;;;24.86;26.54
60061;BME280;45933;51.336;12.612;2023-04-09T12:07:46;100851.22;;;24.86;27.41
60061;BME280;45933;51.336;12.612;2023-04-09T12:10:12;100851.13;;;24.88;26.05
60061;BME280;45933;51.336;12.612;2023-04-09T12:12:42;100852.78;;;24.90;25.66
60061;BME280;45933;51.336;12.612;2023-04-09T12:15:19;100854.88;;;25.01;25.72
60061;BME280;45933;51.336;12.612;2023-04-09T12:17:47;100847.16;;;24.79;24.33
60061;BME280;45933;51.336;12.612;2023-04-09T12:20:13;100850.22;;;24.71;25.27
60061;BME280;45933;51.336;12.612;2023-04-09T12:22:38;100854.44;;;24.75;25.99
60061;BME280;45933;51.336;12.612;2023-04-09T12:25:06;100854.69;;;24.71;25.03
60061;BME280;45933;51.336;12.612;2023-04-09T12:27:32;100843.88;;;24.57;25.09
60061;BME280;45933;51.336;12.612;2023-04-09T12:29:57;100849.97;;;24.76;25.37
60061;BME280;45933;51.336;12.612;2023-04-09T12:32:22;100847.31;;;24.76;25.68
60061;BME280;45933;51.336;12.612;2023-04-09T12:34:48;100845.13;;;24.84;25.52
60061;BME280;45933;51.336;12.612;2023-04-09T12:37:14;100847.84;;;24.83;25.67
60061;BME280;45933;51.336;12.612;2023-04-09T12:39:39;100844.69;;;24.92;25.73
60061;BME280;45933;51.336;12.612;2023-04-09T12:42:05;100840.59;;;25.02;26.01
60061;BME280;45933;51.336;12.612;2023-04-09T12:44:30;100838.44;;;25.10;25.92
60061;BME280;45933;51.336;12.612;2023-04-09T12:46:57;100832.28;;;25.08;25.51
60061;BME280;45933;51.336;12.612;2023-04-09T12:49:23;100835.34;;;25.18;24.78
60061;BME280;45933;51.336;12.612;2023-04-09T12:51:48;100825.75;;;25.14;25.48
60061;BME280;45933;51.336;12.612;2023-04-09T12:54:15;100823.72;;;25.19;25.24
60061;BME280;45933;51.336;12.612;2023-04-09T12:56:40;100824.19;;;25.10;24.35
60061;BME280;45933;51.336;12.612;2023-04-09T12:59:06;100827.56;;;25.13;24.34
60061;BME280;45933;51.336;12.612;2023-04-09T13:01:31;100822.78;;;25.02;23.95